createdAt,value
2023-05-23T00:00:15.502Z,95410.00
2023-05-23T00:04:20.335Z,95408.00
2023-05-23T00:08:23.391Z,95405.00
2023-05-23T00:12:27.789Z,95408.00
2023-05-23T00:16:31.331Z,95409.00
2023-05-23T00:20:35.531Z,95412.00
2023-05-23T00:24:38.441Z,95417.00
2023-05-23T00:28:42.649Z,95414.00
2023-05-23T00:32:45.610Z,95414.00
2023-05-23T00:36:50.395Z,95400.00
2023-05-23T00:40:53.886Z,95405.00
2023-05-23T00:44:58.103Z,95403.00
2023-05-23T00:49:00.980Z,95404.00
2023-05-23T00:53:04.243Z,95400.00
2023-05-23T00:57:07.964Z,95407.00
2023-05-23T01:01:12.212Z,95411.00
2023-05-23T01:05:17.620Z,95407.00
2023-05-23T01:09:21.915Z,95406.00
2023-05-23T01:13:32.660Z,95412.00
2023-05-23T01:17:45.208Z,95411.00
2023-05-23T01:21:53.031Z,95413.00
2023-05-23T01:26:08.893Z,95419.00
2023-05-23T01:30:14.914Z,95414.00
2023-05-23T01:34:19.973Z,95423.00
2023-05-23T01:38:22.845Z,95421.00
2023-05-23T01:42:28.060Z,95416.00
2023-05-23T01:46:33.882Z,95417.00
2023-05-23T01:50:37.408Z,95428.00
2023-05-23T01:54:42.530Z,95425.00
2023-05-23T01:58:46.551Z,95430.00
2023-05-23T02:02:51.043Z,95425.00
2023-05-23T02:06:54.170Z,95438.00
2023-05-23T02:10:58.201Z,95443.00
2023-05-23T02:15:01.164Z,95447.00
2023-05-23T02:19:05.491Z,95446.00
2023-05-23T02:23:08.338Z,95447.00
2023-05-23T02:27:12.985Z,95451.00
2023-05-23T02:31:17.338Z,95444.00
2023-05-23T02:35:21.870Z,95443.00
2023-05-23T02:39:25.719Z,95450.00
2023-05-23T02:43:29.125Z,95454.00
2023-05-23T02:47:32.108Z,95447.00
2023-05-23T02:51:36.391Z,95449.00
2023-05-23T02:55:39.579Z,95452.00
2023-05-23T02:59:42.727Z,95441.00
2023-05-23T03:03:45.784Z,95453.00
2023-05-23T03:07:51.976Z,95452.00
2023-05-23T03:11:54.898Z,95451.00
2023-05-23T03:15:57.758Z,95460.00
2023-05-23T03:20:00.609Z,95441.00
2023-05-23T03:24:04.903Z,95460.00
2023-05-23T03:28:07.813Z,95446.00
2023-05-23T03:32:10.702Z,95463.00
2023-05-23T03:36:13.562Z,95450.00
2023-05-23T03:40:18.661Z,95463.00
2023-05-23T03:44:22.078Z,95450.00
2023-05-23T03:48:25.081Z,95448.00
2023-05-23T03:52:28.127Z,95464.00
2023-05-23T03:56:32.408Z,95471.00
2023-05-23T04:00:35.507Z,95466.00
2023-05-23T04:04:41.287Z,95463.00
2023-05-23T04:08:45.251Z,95469.00
2023-05-23T04:12:49.666Z,95470.00
2023-05-23T04:16:54.159Z,95473.00
2023-05-23T04:20:57.295Z,95475.00
2023-05-23T04:25:00.785Z,95486.00
2023-05-23T04:29:09.029Z,95478.00
2023-05-23T04:33:13.413Z,95481.00
2023-05-23T04:37:17.398Z,95477.00
2023-05-23T04:41:23.622Z,95489.00
2023-05-23T04:45:44.101Z,95477.00
2023-05-23T04:50:08.603Z,95491.00
2023-05-23T04:54:12.332Z,95502.00
2023-05-23T04:58:16.478Z,95501.00
2023-05-23T05:02:21.127Z,95507.00
2023-05-23T05:06:24.088Z,95507.00
2023-05-23T05:10:28.218Z,95505.00
2023-05-23T05:14:32.097Z,95509.00
2023-05-23T05:18:37.510Z,95500.00
2023-05-23T05:23:38.061Z,95502.00
2023-05-23T05:27:43.697Z,95503.00
2023-05-23T05:31:49.268Z,95497.00
2023-05-23T05:35:53.467Z,95505.00
2023-05-23T05:39:57.206Z,95499.00
2023-05-23T05:44:00.723Z,95501.00
2023-05-23T05:48:04.128Z,95516.00
2023-05-23T05:52:09.842Z,95520.00
2023-05-23T05:56:13.566Z,95525.00
2023-05-23T06:00:19.061Z,95518.00
2023-05-23T06:04:22.032Z,95528.00
2023-05-23T06:08:27.364Z,95530.00
2023-05-23T06:12:30.321Z,95534.00
2023-05-23T06:16:33.308Z,95527.00
2023-05-23T06:20:36.242Z,95519.00
2023-05-23T06:24:43.931Z,95538.00
2023-05-23T06:28:46.785Z,95538.00
2023-05-23T06:32:50.003Z,95549.00
2023-05-23T06:36:54.722Z,95543.00
2023-05-23T06:40:58.963Z,95550.00
2023-05-23T06:45:02.445Z,95545.00
2023-05-23T06:49:14.458Z,95554.00
2023-05-23T06:53:19.653Z,95546.00
2023-05-23T06:57:25.912Z,95548.00
2023-05-23T07:01:28.807Z,95560.00
2023-05-23T07:05:33.387Z,95550.00
2023-05-23T07:09:36.608Z,95555.00
2023-05-23T07:13:47.303Z,95558.00
2023-05-23T07:17:57.629Z,95563.00
2023-05-23T07:22:02.286Z,95573.00
2023-05-23T07:26:06.609Z,95576.00
2023-05-23T07:30:33.379Z,95573.00
2023-05-23T07:34:36.855Z,95573.00
2023-05-23T07:38:39.977Z,95567.00
2023-05-23T07:42:42.890Z,95571.00
2023-05-23T07:46:47.248Z,95576.00
2023-05-23T07:50:54.942Z,95586.00
2023-05-23T07:54:59.520Z,95586.00
2023-05-23T07:59:03.735Z,95590.00
2023-05-23T08:03:08.273Z,95582.00
2023-05-23T08:07:19.421Z,95586.00
2023-05-23T08:11:28.732Z,95583.00
2023-05-23T08:15:31.837Z,95584.00
2023-05-23T08:19:45.296Z,95588.00
2023-05-23T08:23:48.386Z,95594.00
2023-05-23T08:27:51.349Z,95592.00
2023-05-23T08:32:11.899Z,95593.00
2023-05-23T08:36:16.760Z,95594.00
2023-05-23T08:40:24.538Z,95593.00
2023-05-23T08:44:35.162Z,95600.00
2023-05-23T08:48:40.140Z,95605.00
2023-05-23T08:52:51.550Z,95609.00
2023-05-23T08:56:54.736Z,95605.00
2023-05-23T09:00:58.857Z,95604.00
2023-05-23T09:05:02.571Z,95602.00
2023-05-23T09:09:07.305Z,95605.00
2023-05-23T09:13:10.680Z,95605.00
2023-05-23T09:17:27.874Z,95615.00
2023-05-23T09:21:32.970Z,95621.00
2023-05-23T09:25:57.436Z,95609.00
2023-05-23T09:30:07.258Z,95618.00
2023-05-23T09:34:10.876Z,95623.00
2023-05-23T09:38:15.050Z,95615.00
2023-05-23T09:42:23.582Z,95621.00
2023-05-23T09:46:30.000Z,95625.00
2023-05-23T09:50:34.384Z,95619.00
2023-05-23T09:54:38.842Z,95618.00
2023-05-23T09:58:46.581Z,95618.00
2023-05-23T10:02:56.832Z,95615.00
2023-05-23T10:07:06.937Z,95612.00
2023-05-23T10:11:51.890Z,95618.00
2023-05-23T10:16:01.364Z,95619.00
2023-05-23T10:20:08.381Z,95624.00
2023-05-23T10:24:12.541Z,95616.00
2023-05-23T10:28:16.480Z,95610.00
2023-05-23T10:32:21.603Z,95621.00
2023-05-23T10:36:30.820Z,95608.00
2023-05-23T10:40:44.286Z,95610.00
2023-05-23T10:44:47.103Z,95609.00
2023-05-23T10:48:57.730Z,95601.00
2023-05-23T10:53:01.178Z,95608.00
2023-05-23T10:57:05.012Z,95608.00
2023-05-23T11:01:14.085Z,95604.00
2023-05-23T11:05:25.091Z,95604.00
2023-05-23T11:09:28.026Z,95599.00
2023-05-23T11:13:56.269Z,95596.00
2023-05-23T11:17:59.533Z,95585.00
2023-05-23T11:22:06.134Z,95584.00
2023-05-23T11:26:30.475Z,95586.00
2023-05-23T11:30:33.743Z,95577.00
2023-05-23T11:34:36.586Z,95579.00
2023-05-23T11:38:40.904Z,95575.00
2023-05-23T11:42:44.450Z,95576.00
2023-05-23T11:47:00.488Z,95563.00
2023-05-23T11:51:03.783Z,95567.00
2023-05-23T11:55:10.819Z,95556.00
2023-05-23T11:59:13.748Z,95551.00
2023-05-23T12:03:16.841Z,95550.00
2023-05-23T12:07:20.845Z,95544.00
2023-05-23T12:11:26.251Z,95553.00
2023-05-23T12:15:31.536Z,95559.00
2023-05-23T12:19:34.662Z,95562.00
2023-05-23T12:23:37.636Z,95552.00
2023-05-23T12:27:44.271Z,95556.00
2023-05-23T12:31:50.314Z,95574.00
2023-05-23T12:35:54.642Z,95575.00
2023-05-23T12:39:57.536Z,95574.00
2023-05-23T12:44:03.358Z,95577.00
2023-05-23T12:48:07.111Z,95573.00
2023-05-23T12:52:10.126Z,95582.00
2023-05-23T12:56:13.033Z,95582.00
2023-05-23T13:00:17.952Z,95576.00
2023-05-23T13:04:21.010Z,95583.00
2023-05-23T13:08:24.096Z,95581.00
2023-05-23T13:12:27.050Z,95586.00
2023-05-23T13:16:31.502Z,95576.00
2023-05-23T13:20:34.835Z,95569.00
2023-05-23T13:24:38.149Z,95570.00
2023-05-23T13:28:41.016Z,95563.00
2023-05-23T13:32:45.430Z,95571.00
2023-05-23T13:36:48.318Z,95560.00
2023-05-23T13:40:51.741Z,95559.00
2023-05-23T13:44:54.730Z,95553.00
2023-05-23T13:48:58.945Z,95559.00
2023-05-23T13:53:01.857Z,95556.00
2023-05-23T13:57:04.974Z,95564.00
2023-05-23T14:01:12.504Z,95565.00
2023-05-23T14:05:19.409Z,95569.00
2023-05-23T14:09:44.161Z,95563.00
2023-05-23T14:13:46.987Z,95564.00
2023-05-23T14:17:55.172Z,95561.00
2023-05-23T14:21:59.431Z,95557.00
2023-05-23T14:26:02.315Z,95562.00
2023-05-23T14:30:06.104Z,95565.00
2023-05-23T14:34:08.956Z,95561.00
2023-05-23T14:38:13.220Z,95564.00
2023-05-23T14:42:16.129Z,95569.00
2023-05-23T14:46:19.181Z,95570.00
2023-05-23T14:50:22.161Z,95583.00
2023-05-23T14:54:26.536Z,95597.00
2023-05-23T14:58:29.415Z,95599.00
2023-05-23T15:02:32.386Z,95592.00
2023-05-23T15:06:35.477Z,95603.00
2023-05-23T15:10:39.824Z,95588.00
2023-05-23T15:14:43.619Z,95588.00
2023-05-23T15:18:46.614Z,95590.00
2023-05-23T15:22:49.502Z,95588.00
2023-05-23T15:26:54.089Z,95588.00
2023-05-23T15:30:59.081Z,95594.00
2023-05-23T15:35:01.935Z,95591.00
2023-05-23T15:39:06.203Z,95592.00
2023-05-23T15:43:10.407Z,95606.00
2023-05-23T15:47:13.259Z,95606.00
2023-05-23T15:51:16.423Z,95605.00
2023-05-23T15:55:19.449Z,95609.00
2023-05-23T15:59:23.637Z,95598.00
2023-05-23T16:03:26.843Z,95610.00
2023-05-23T16:07:29.761Z,95611.00
2023-05-23T16:11:32.691Z,95613.00
2023-05-23T16:15:37.090Z,95616.00
2023-05-23T16:19:40.062Z,95626.00
2023-05-23T16:23:42.998Z,95626.00
2023-05-23T16:27:45.896Z,95632.00
2023-05-23T16:31:50.166Z,95625.00
2023-05-23T16:35:53.180Z,95625.00
2023-05-23T16:39:56.064Z,95625.00
2023-05-23T16:43:58.907Z,95632.00
2023-05-23T16:48:03.198Z,95629.00
2023-05-23T16:52:06.382Z,95638.00
2023-05-23T16:56:09.253Z,95636.00
2023-05-23T17:00:13.281Z,95634.00
2023-05-23T17:04:20.229Z,95638.00
2023-05-23T17:08:23.359Z,95639.00
2023-05-23T17:12:26.929Z,95631.00
2023-05-23T17:16:33.261Z,95645.00
2023-05-23T17:20:38.021Z,95650.00
2023-05-23T17:24:40.959Z,95653.00
2023-05-23T17:28:43.857Z,95649.00
2023-05-23T17:32:47.835Z,95653.00
2023-05-23T17:36:52.785Z,95646.00
2023-05-23T17:40:55.652Z,95647.00
2023-05-23T17:44:58.935Z,95645.00
2023-05-23T17:49:01.798Z,95641.00
2023-05-23T17:53:06.254Z,95643.00
2023-05-23T17:57:09.093Z,95651.00
2023-05-23T18:01:15.825Z,95654.00
2023-05-23T18:05:20.362Z,95658.00
2023-05-23T18:09:24.575Z,95663.00
2023-05-23T18:13:27.428Z,95659.00
2023-05-23T18:17:30.572Z,95660.00
2023-05-23T18:21:34.732Z,95659.00
2023-05-23T18:25:39.064Z,95661.00
2023-05-23T18:29:41.977Z,95673.00
2023-05-23T18:33:44.913Z,95674.00
2023-05-23T18:37:48.026Z,95686.00
2023-05-23T18:41:52.353Z,95684.00
2023-05-23T18:45:55.239Z,95689.00
2023-05-23T18:49:58.066Z,95693.00
2023-05-23T18:54:01.037Z,95692.00
2023-05-23T18:58:05.332Z,95708.00
2023-05-23T19:02:08.359Z,95709.00
2023-05-23T19:06:11.603Z,95706.00
2023-05-23T19:10:14.476Z,95723.00
2023-05-23T19:14:18.731Z,95732.00
2023-05-23T19:18:21.727Z,95727.00
2023-05-23T19:22:24.991Z,95739.00
2023-05-23T19:26:28.645Z,95744.00
2023-05-23T19:30:32.893Z,95748.00
2023-05-23T19:34:36.249Z,95754.00
2023-05-23T19:38:39.121Z,95751.00
2023-05-23T19:42:42.128Z,95758.00
2023-05-23T19:46:46.381Z,95762.00
2023-05-23T19:50:49.261Z,95759.00
2023-05-23T19:54:52.101Z,95762.00
2023-05-23T19:58:54.985Z,95766.00
2023-05-23T20:02:59.222Z,95761.00
2023-05-23T20:07:02.132Z,95758.00
2023-05-23T20:11:05.104Z,95756.00
2023-05-23T20:15:08.963Z,95764.00
2023-05-23T20:19:13.257Z,95769.00
2023-05-23T20:23:16.184Z,95778.00
2023-05-23T20:27:19.095Z,95794.00
2023-05-23T20:31:22.094Z,95799.00
2023-05-23T20:35:26.841Z,95792.00
2023-05-23T20:39:29.896Z,95792.00
2023-05-23T20:43:33.357Z,95789.00
2023-05-23T20:47:37.410Z,95789.00
2023-05-23T20:51:41.802Z,95788.00
2023-05-23T20:55:44.689Z,95794.00
2023-05-23T20:59:47.548Z,95787.00
2023-05-23T21:03:50.510Z,95791.00
2023-05-23T21:07:54.714Z,95797.00
2023-05-23T21:11:58.286Z,95801.00
2023-05-23T21:16:01.155Z,95809.00
2023-05-23T21:20:05.553Z,95808.00
2023-05-23T21:24:09.973Z,95802.00
2023-05-23T21:28:12.793Z,95810.00
2023-05-23T21:32:16.187Z,95814.00
2023-05-23T21:36:19.010Z,95817.00
2023-05-23T21:40:25.227Z,95813.00
2023-05-23T21:44:28.114Z,95811.00
2023-05-23T21:48:30.916Z,95816.00
2023-05-23T21:52:33.772Z,95827.00
2023-05-23T21:56:38.008Z,95836.00
2023-05-23T22:00:43.503Z,95847.00
2023-05-23T22:04:46.489Z,95850.00
2023-05-23T22:08:49.349Z,95846.00
2023-05-23T22:12:53.548Z,95855.00
2023-05-23T22:16:59.005Z,95843.00
2023-05-23T22:21:01.881Z,95846.00
2023-05-23T22:25:05.170Z,95849.00
2023-05-23T22:29:09.383Z,95847.00
2023-05-23T22:33:13.229Z,95844.00
2023-05-23T22:37:16.855Z,95847.00
2023-05-23T22:41:19.955Z,95841.00
2023-05-23T22:45:24.241Z,95845.00
2023-05-23T22:49:29.892Z,95839.00
2023-05-23T22:53:32.741Z,95838.00
2023-05-23T22:57:35.624Z,95828.00
2023-05-23T23:01:39.964Z,95836.00
2023-05-23T23:05:42.917Z,95833.00
2023-05-23T23:09:46.078Z,95823.00
2023-05-23T23:13:48.954Z,95826.00
2023-05-23T23:17:53.253Z,95837.00
2023-05-23T23:21:56.205Z,95829.00
2023-05-23T23:25:59.542Z,95824.00
2023-05-23T23:30:02.575Z,95819.00
2023-05-23T23:34:06.841Z,95812.00
2023-05-23T23:38:09.691Z,95823.00
2023-05-23T23:42:12.942Z,95826.00
2023-05-23T23:46:16.574Z,95827.00
2023-05-23T23:50:21.391Z,95818.00
2023-05-23T23:54:24.255Z,95818.00
2023-05-23T23:58:27.128Z,95820.00
